sensor_id;sensor_type;location;lat;lon;timestamp;pressure;altitude;pressure_sealevel;temperature;humidity
929;BME280;451;47.988;7.842;2024-01-25T00:02:30;99883.16;;;11.25;100.00
929;BME280;451;47.988;7.842;2024-01-25T00:11:34;99876.09;;;11.26;100.00
929;BME280;451;47.988;7.842;2024-01-25T00:20:37;99872.22;;;11.30;100.00
929;BME280;451;47.988;7.842;2024-01-25T00:29:42;99877.75;;;11.27;100.00
929;BME280;451;47.988;7.842;2024-01-25T00:38:46;99870.56;;;11.29;100.00
929;BME280;451;47.988;7.842;2024-01-25T00:47:51;99853.66;;;11.03;100.00
929;BME280;451;47.988;7.842;2024-01-25T00:56:54;99876.34;;;11.32;100.00
929;BME280;451;47.988;7.842;2024-01-25T01:05:59;99874.97;;;11.19;100.00
929;BME280;451;47.988;7.842;2024-01-25T01:15:03;99856.28;;;11.03;100.00
929;BME280;451;47.988;7.842;2024-01-25T01:24:08;99866.66;;;10.95;100.00
929;BME280;451;47.988;7.842;2024-01-25T01:33:11;99873.31;;;10.79;100.00
929;BME280;451;47.988;7.842;2024-01-25T01:42:15;99853.66;;;10.83;100.00
929;BME280;451;47.988;7.842;2024-01-25T01:51:18;99866.66;;;10.75;100.00
929;BME280;451;47.988;7.842;2024-01-25T02:00:24;99868.69;;;10.43;100.00
929;BME280;451;47.988;7.842;2024-01-25T02:09:27;99864.25;;;10.13;100.00
929;BME280;451;47.988;7.842;2024-01-25T02:18:32;99855.28;;;10.16;100.00
929;BME280;451;47.988;7.842;2024-01-25T02:27:37;99847.09;;;10.09;100.00
929;BME280;451;47.988;7.842;2024-01-25T02:36:41;99854.06;;;9.89;100.00
929;BME280;451;47.988;7.842;2024-01-25T02:45:45;99857.91;;;10.16;100.00
929;BME280;451;47.988;7.842;2024-01-25T02:54:50;99842.59;;;9.90;100.00
929;BME280;451;47.988;7.842;2024-01-25T03:03:54;99844.22;;;9.82;100.00
929;BME280;451;47.988;7.842;2024-01-25T03:12:57;99842.06;;;9.87;100.00
929;BME280;451;47.988;7.842;2024-01-25T03:22:02;99852.41;;;9.88;100.00
929;BME280;451;47.988;7.842;2024-01-25T03:31:05;99835.97;;;9.86;100.00
929;BME280;451;47.988;7.842;2024-01-25T03:40:09;99857.22;;;9.83;100.00
929;BME280;451;47.988;7.842;2024-01-25T03:49:12;99856.97;;;9.86;100.00
929;BME280;451;47.988;7.842;2024-01-25T03:58:18;99858.47;;;9.79;100.00
929;BME280;451;47.988;7.842;2024-01-25T04:07:21;99872.44;;;9.59;100.00
929;BME280;451;47.988;7.842;2024-01-25T04:16:26;99883.53;;;9.42;100.00
929;BME280;451;47.988;7.842;2024-01-25T04:25:29;99871.72;;;9.15;100.00
929;BME280;451;47.988;7.842;2024-01-25T04:34:35;99857.06;;;8.81;100.00
929;BME280;451;47.988;7.842;2024-01-25T04:43:38;99892.69;;;8.83;100.00
929;BME280;451;47.988;7.842;2024-01-25T04:52:42;99908.34;;;8.74;100.00
929;BME280;451;47.988;7.842;2024-01-25T05:01:45;99908.13;;;8.66;100.00
929;BME280;451;47.988;7.842;2024-01-25T05:10:49;99928.22;;;8.76;100.00
929;BME280;451;47.988;7.842;2024-01-25T05:19:52;99933.38;;;8.67;100.00
929;BME280;451;47.988;7.842;2024-01-25T05:28:57;99945.56;;;8.68;100.00
929;BME280;451;47.988;7.842;2024-01-25T05:38:00;99966.25;;;8.71;100.00
929;BME280;451;47.988;7.842;2024-01-25T05:47:04;99968.41;;;8.66;100.00
929;BME280;451;47.988;7.842;2024-01-25T05:56:07;99970.94;;;8.67;100.00
929;BME280;451;47.988;7.842;2024-01-25T06:05:12;99974.38;;;8.79;100.00
929;BME280;451;47.988;7.842;2024-01-25T06:14:15;99970.28;;;8.75;100.00
929;BME280;451;47.988;7.842;2024-01-25T06:23:19;99969.63;;;8.62;100.00
929;BME280;451;47.988;7.842;2024-01-25T06:32:22;99948.63;;;8.50;100.00
929;BME280;451;47.988;7.842;2024-01-25T06:41:27;99970.81;;;8.58;100.00
929;BME280;451;47.988;7.842;2024-01-25T06:50:30;99974.16;;;8.60;100.00
929;BME280;451;47.988;7.842;2024-01-25T06:59:34;99958.41;;;8.60;100.00
929;BME280;451;47.988;7.842;2024-01-25T07:08:37;99958.41;;;8.60;100.00
929;BME280;451;47.988;7.842;2024-01-25T07:17:42;99971.28;;;8.74;100.00
929;BME280;451;47.988;7.842;2024-01-25T07:26:45;99959.09;;;8.84;100.00
929;BME280;451;47.988;7.842;2024-01-25T07:35:49;99967.91;;;8.83;100.00
929;BME280;451;47.988;7.842;2024-01-25T07:44:52;99959.31;;;8.92;100.00
929;BME280;451;47.988;7.842;2024-01-25T07:53:57;99954.50;;;9.08;100.00
929;BME280;451;47.988;7.842;2024-01-25T08:03:00;99949.72;;;9.13;100.00
929;BME280;451;47.988;7.842;2024-01-25T08:12:05;99955.84;;;9.35;100.00
929;BME280;451;47.988;7.842;2024-01-25T08:21:08;99937.59;;;9.33;100.00
929;BME280;451;47.988;7.842;2024-01-25T08:30:14;99934.19;;;9.21;100.00
929;BME280;451;47.988;7.842;2024-01-25T08:39:17;99946.06;;;9.37;100.00
929;BME280;451;47.988;7.842;2024-01-25T08:48:21;99951.34;;;9.25;100.00
929;BME280;451;47.988;7.842;2024-01-25T08:57:25;99964.78;;;9.64;100.00
929;BME280;451;47.988;7.842;2024-01-25T09:06:29;99950.94;;;9.41;100.00
929;BME280;451;47.988;7.842;2024-01-25T09:15:33;99938.06;;;9.59;100.00
929;BME280;451;47.988;7.842;2024-01-25T09:24:37;99961.06;;;9.66;100.00
929;BME280;451;47.988;7.842;2024-01-25T09:33:42;99951.31;;;9.37;100.00
929;BME280;451;47.988;7.842;2024-01-25T09:42:46;99981.97;;;9.57;100.00
929;BME280;451;47.988;7.842;2024-01-25T09:51:51;99978.47;;;9.88;100.00
929;BME280;451;47.988;7.842;2024-01-25T10:00:56;99979.19;;;9.69;100.00
929;BME280;451;47.988;7.842;2024-01-25T10:09:59;99936.53;;;9.77;100.00
929;BME280;451;47.988;7.842;2024-01-25T10:19:06;99975.09;;;9.97;100.00
929;BME280;451;47.988;7.842;2024-01-25T10:28:09;99965.78;;;10.14;100.00
929;BME280;451;47.988;7.842;2024-01-25T10:37:14;99980.72;;;10.13;100.00
929;BME280;451;47.988;7.842;2024-01-25T10:46:19;99977.25;;;10.34;100.00
929;BME280;451;47.988;7.842;2024-01-25T10:55:23;99955.91;;;10.06;100.00
929;BME280;451;47.988;7.842;2024-01-25T11:04:29;99933.19;;;10.17;100.00
929;BME280;451;47.988;7.842;2024-01-25T11:13:34;99933.06;;;9.97;100.00
929;BME280;451;47.988;7.842;2024-01-25T11:22:37;99916.09;;;10.32;100.00
929;BME280;451;47.988;7.842;2024-01-25T11:31:42;99884.53;;;10.32;100.00
929;BME280;451;47.988;7.842;2024-01-25T11:40:45;99890.44;;;10.55;100.00
929;BME280;451;47.988;7.842;2024-01-25T11:49:49;99892.38;;;10.52;100.00
929;BME280;451;47.988;7.842;2024-01-25T11:58:53;99883.22;;;10.47;100.00
929;BME280;451;47.988;7.842;2024-01-25T12:07:59;99877.75;;;10.88;100.00
929;BME280;451;47.988;7.842;2024-01-25T12:17:03;99844.81;;;11.04;100.00
929;BME280;451;47.988;7.842;2024-01-25T12:26:09;99860.84;;;11.20;100.00
929;BME280;451;47.988;7.842;2024-01-25T12:35:12;99833.66;;;11.48;100.00
929;BME280;451;47.988;7.842;2024-01-25T12:44:17;99820.72;;;11.64;100.00
929;BME280;451;47.988;7.842;2024-01-25T12:53:20;99798.56;;;11.57;100.00
929;BME280;451;47.988;7.842;2024-01-25T13:02:24;99788.94;;;11.76;100.00
929;BME280;451;47.988;7.842;2024-01-25T13:11:27;99774.84;;;11.94;100.00
929;BME280;451;47.988;7.842;2024-01-25T13:20:32;99768.06;;;12.19;100.00
929;BME280;451;47.988;7.842;2024-01-25T13:29:35;99757.84;;;12.34;100.00
929;BME280;451;47.988;7.842;2024-01-25T13:38:39;99743.75;;;12.25;100.00
929;BME280;451;47.988;7.842;2024-01-25T13:47:42;99743.97;;;12.49;100.00
929;BME280;451;47.988;7.842;2024-01-25T13:56:47;99744.81;;;12.68;100.00
929;BME280;451;47.988;7.842;2024-01-25T14:05:50;99744.66;;;12.51;100.00
929;BME280;451;47.988;7.842;2024-01-25T14:14:55;99735.16;;;12.59;100.00
929;BME280;451;47.988;7.842;2024-01-25T14:23:58;99725.69;;;12.30;100.00
929;BME280;451;47.988;7.842;2024-01-25T14:33:02;99708.47;;;12.26;100.00
929;BME280;451;47.988;7.842;2024-01-25T14:42:09;99710.66;;;12.13;100.00
929;BME280;451;47.988;7.842;2024-01-25T14:51:14;99699.47;;;11.84;100.00
929;BME280;451;47.988;7.842;2024-01-25T15:00:17;99691.47;;;12.03;100.00
929;BME280;451;47.988;7.842;2024-01-25T15:09:23;99691.66;;;11.64;100.00
929;BME280;451;47.988;7.842;2024-01-25T15:18:26;99679.34;;;11.28;100.00
929;BME280;451;47.988;7.842;2024-01-25T15:27:30;99685.78;;;11.16;100.00
929;BME280;451;47.988;7.842;2024-01-25T15:36:33;99682.19;;;11.07;100.00
929;BME280;451;47.988;7.842;2024-01-25T15:45:38;99666.97;;;11.11;100.00
929;BME280;451;47.988;7.842;2024-01-25T15:54:41;99660.28;;;11.16;100.00
929;BME280;451;47.988;7.842;2024-01-25T16:03:46;99675.31;;;10.97;100.00
929;BME280;451;47.988;7.842;2024-01-25T16:12:49;99669.31;;;11.04;100.00
929;BME280;451;47.988;7.842;2024-01-25T16:21:53;99681.94;;;11.01;100.00
929;BME280;451;47.988;7.842;2024-01-25T16:30:57;99681.13;;;10.90;100.00
929;BME280;451;47.988;7.842;2024-01-25T16:40:01;99694.13;;;11.02;100.00
929;BME280;451;47.988;7.842;2024-01-25T16:49:05;99693.97;;;10.93;100.00
929;BME280;451;47.988;7.842;2024-01-25T16:58:10;99699.69;;;10.99;100.00
929;BME280;451;47.988;7.842;2024-01-25T17:07:13;99701.03;;;11.03;100.00
929;BME280;451;47.988;7.842;2024-01-25T17:16:17;99707.13;;;10.93;100.00
929;BME280;451;47.988;7.842;2024-01-25T17:25:21;99686.69;;;10.78;100.00
929;BME280;451;47.988;7.842;2024-01-25T17:34:25;99685.88;;;10.77;100.00
929;BME280;451;47.988;7.842;2024-01-25T17:43:29;99698.72;;;10.90;100.00
929;BME280;451;47.988;7.842;2024-01-25T17:52:33;99706.47;;;10.91;100.00
929;BME280;451;47.988;7.842;2024-01-25T18:01:36;99698.97;;;10.97;100.00
929;BME280;451;47.988;7.842;2024-01-25T18:10:41;99693.59;;;10.88;100.00
929;BME280;451;47.988;7.842;2024-01-25T18:19:44;99689.22;;;11.16;100.00
929;BME280;451;47.988;7.842;2024-01-25T18:28:49;99703.47;;;11.23;100.00
929;BME280;451;47.988;7.842;2024-01-25T18:37:52;99694.38;;;11.08;100.00
929;BME280;451;47.988;7.842;2024-01-25T18:46:56;99701.84;;;11.13;100.00
929;BME280;451;47.988;7.842;2024-01-25T18:56:00;99712.59;;;11.29;100.00
929;BME280;451;47.988;7.842;2024-01-25T19:05:06;99703.16;;;11.36;100.00
929;BME280;451;47.988;7.842;2024-01-25T19:14:09;99687.81;;;11.22;100.00
929;BME280;451;47.988;7.842;2024-01-25T19:23:14;99683.84;;;11.08;100.00
929;BME280;451;47.988;7.842;2024-01-25T19:32:17;99691.69;;;10.71;100.00
929;BME280;451;47.988;7.842;2024-01-25T19:41:23;99676.75;;;10.62;100.00
929;BME280;451;47.988;7.842;2024-01-25T19:50:27;99667.59;;;10.85;100.00
929;BME280;451;47.988;7.842;2024-01-25T19:59:32;99638.53;;;10.77;100.00
929;BME280;451;47.988;7.842;2024-01-25T20:08:36;99683.44;;;11.03;100.00
929;BME280;451;47.988;7.842;2024-01-25T20:17:41;99699.09;;;11.05;100.00
929;BME280;451;47.988;7.842;2024-01-25T20:26:44;99687.50;;;10.88;100.00
929;BME280;451;47.988;7.842;2024-01-25T20:35:49;99706.59;;;10.90;100.00
929;BME280;451;47.988;7.842;2024-01-25T20:44:52;99708.53;;;10.88;100.00
929;BME280;451;47.988;7.842;2024-01-25T20:53:56;99706.88;;;10.97;100.00
929;BME280;451;47.988;7.842;2024-01-25T21:03:00;99705.78;;;10.99;100.00
929;BME280;451;47.988;7.842;2024-01-25T21:12:06;99709.34;;;11.08;100.00
929;BME280;451;47.988;7.842;2024-01-25T21:21:09;99692.09;;;10.86;100.00
929;BME280;451;47.988;7.842;2024-01-25T21:30:16;99695.66;;;10.95;100.00
929;BME280;451;47.988;7.842;2024-01-25T21:39:19;99688.25;;;10.61;100.00
929;BME280;451;47.988;7.842;2024-01-25T21:48:24;99705.81;;;10.70;100.00
929;BME280;451;47.988;7.842;2024-01-25T21:57:27;99701.38;;;10.71;100.00
929;BME280;451;47.988;7.842;2024-01-25T22:06:31;99693.38;;;10.53;100.00
929;BME280;451;47.988;7.842;2024-01-25T22:15:34;99692.00;;;10.49;100.00
929;BME280;451;47.988;7.842;2024-01-25T22:24:39;99672.09;;;10.37;100.00
929;BME280;451;47.988;7.842;2024-01-25T22:33:42;99680.94;;;10.36;100.00
929;BME280;451;47.988;7.842;2024-01-25T22:42:46;99683.00;;;10.42;100.00
929;BME280;451;47.988;7.842;2024-01-25T22:51:49;99679.53;;;10.32;100.00
929;BME280;451;47.988;7.842;2024-01-25T23:00:54;99674.72;;;10.18;100.00
929;BME280;451;47.988;7.842;2024-01-25T23:09:57;99682.53;;;10.08;100.00
929;BME280;451;47.988;7.842;2024-01-25T23:19:02;99690.47;;;10.18;100.00
929;BME280;451;47.988;7.842;2024-01-25T23:28:05;99701.09;;;10.26;100.00
929;BME280;451;47.988;7.842;2024-01-25T23:37:10;99699.44;;;10.25;100.00
929;BME280;451;47.988;7.842;2024-01-25T23:46:13;99708.03;;;10.27;100.00
929;BME280;451;47.988;7.842;2024-01-25T23:55:18;99711.19;;;10.11;100.00
